Time;durP1;ratioP1;P1;durP2;ratioP2;P2;SDS_P1;SDS_P2;PMS_P1;PMS_P2;Temp;Humidity;BMP_temperature;BMP_pressure;BME280_temperature;BME280_humidity;BME280_pressure;Samples;Min_cycle;Max_cycle;Signal;HPM_P1;HPM_P2
2021/12/06 00:00:55;;;;;;;;;;;;;;;;;;5137556;27;19950;-83
2021/12/06 00:03:22;;;;;;;;;;;;;;;;;;5137463;27;20006;-83
2021/12/06 00:05:49;;;;;;;;;;;;;;;;;;5137264;27;20015;-83
2021/12/06 00:08:16;;;;;;;;;;;;;;;;;;5136917;27;20056;-82
2021/12/06 00:10:44;;;;;;;;;;;;;;;;;;5137439;27;20030;-83
2021/12/06 00:13:12;;;;;;;;;;;;;;;;;;5137289;27;20348;-83
2021/12/06 00:15:39;;;;;;;;;;;;;;;;;;5137348;27;19942;-83
2021/12/06 00:18:06;;;;;;;;;;;;;;;;;;5137009;27;19941;-83
2021/12/06 00:20:33;;;;;;;;;;;;;;;;;;5137127;27;19999;-83
2021/12/06 00:23:00;;;;;;;;;;;;;;;;;;5137286;27;20006;-83
2021/12/06 00:25:27;;;;;;;;;;;;;;;;;;5137098;27;20041;-83
2021/12/06 00:27:54;;;;;;;;;;;;;;;;;;5136957;27;20013;-83
2021/12/06 00:30:21;;;;;;;;;;;;;;;;;;5136940;27;19959;-82
2021/12/06 00:32:48;;;;;;;;;;;;;;;;;;5136789;27;19962;-82
2021/12/06 00:35:19;;;;;;;;;;;;;;;;;;5137015;27;19955;-83
2021/12/06 00:37:55;;;;;;;;;;;;;;;;;;5137017;27;20032;-82
2021/12/06 00:40:22;;;;;;;;;;;;;;;;;;5136584;27;19961;-83
2021/12/06 00:42:49;;;;;;;;;;;;;;;;;;5136698;27;20045;-83
2021/12/06 00:45:16;;;;;;;;;;;;;;;;;;5136596;27;20048;-82
2021/12/06 00:47:43;;;;;;;;;;;;;;;;;;5136902;27;20196;-82
2021/12/06 00:50:10;;;;;;;;;;;;;;;;;;5136537;27;20028;-82
2021/12/06 00:52:37;;;;;;;;;;;;;;;;;;5136575;27;20028;-82
2021/12/06 00:55:04;;;;;;;;;;;;;;;;;;5136596;27;20010;-82
2021/12/06 00:57:31;;;;;;;;;;;;;;;;;;5140881;27;20030;-83
2021/12/06 00:59:58;;;;;;;;;;;;;;;;;;5136512;27;20035;-83
2021/12/06 01:02:25;;;;;;;;;;;;;;;;;;5136681;27;19991;-83
2021/12/06 01:04:52;;;;;;;;;;;;;;;;;;5136158;27;20056;-82
2021/12/06 01:07:19;;;;;;;;;;;;;;;;;;5136361;27;19951;-82
2021/12/06 01:09:46;;;;;;;;;;;;;;;;;;5136323;27;20365;-83
2021/12/06 01:12:13;;;;;;;;;;;;;;;;;;5136065;27;19996;-82
2021/12/06 01:14:40;;;;;;;;;;;;;;;;;;5136075;27;20033;-83
2021/12/06 01:17:07;;;;;;;;;;;;;;;;;;5135909;27;20368;-82
2021/12/06 01:19:36;;;;;;;;;;;;;;;;;;5135104;27;19950;-83
2021/12/06 01:22:13;;;;;;;;;;;;;;;;;;5135817;27;20052;-83
2021/12/06 01:24:45;;;;;;;;;;;;;;;;;;5135878;27;19960;-82
2021/12/06 01:27:30;;;;;;;;;;;;;;;;;;5135916;27;19943;-83
2021/12/06 01:30:16;;;;;;;;;;;;;;;;;;5135768;27;20399;-82
2021/12/06 01:40:54;;;;;;;;;;;;;;;;;;5135627;27;19983;-83
2021/12/06 01:43:21;;;;;;;;;;;;;;;;;;5135535;27;20461;-83
2021/12/06 01:45:48;;;;;;;;;;;;;;;;;;5134963;27;20054;-83
2021/12/06 01:48:15;;;;;;;;;;;;;;;;;;5135608;27;19943;-83
2021/12/06 01:50:42;;;;;;;;;;;;;;;;;;5135492;27;19954;-82
2021/12/06 01:53:09;;;;;;;;;;;;;;;;;;5135356;27;20003;-83
2021/12/06 01:55:36;;;;;;;;;;;;;;;;;;5135361;27;19993;-83
2021/12/06 01:58:03;;;;;;;;;;;;;;;;;;5135213;27;20435;-83
2021/12/06 02:00:30;;;;;;;;;;;;;;;;;;5135172;27;19981;-82
2021/12/06 02:02:57;;;;;;;;;;;;;;;;;;5135404;27;20048;-83
2021/12/06 02:05:24;;;;;;;;;;;;;;;;;;5134983;27;20062;-82
2021/12/06 02:07:51;;;;;;;;;;;;;;;;;;5135043;27;19952;-82
2021/12/06 02:10:18;;;;;;;;;;;;;;;;;;5135068;27;19988;-82
2021/12/06 02:12:47;;;;;;;;;;;;;;;;;;5134992;27;20014;-83
2021/12/06 02:15:29;;;;;;;;;;;;;;;;;;5135131;27;20040;-82
2021/12/06 02:18:04;;;;;;;;;;;;;;;;;;5134871;27;19923;-83
2021/12/06 02:20:36;;;;;;;;;;;;;;;;;;5134971;27;19931;-82
2021/12/06 02:23:03;;;;;;;;;;;;;;;;;;5134844;27;19944;-83
2021/12/06 02:25:30;;;;;;;;;;;;;;;;;;5134783;27;20000;-82
2021/12/06 02:27:57;;;;;;;;;;;;;;;;;;5136932;27;20038;-82
2021/12/06 02:30:24;;;;;;;;;;;;;;;;;;5137640;27;20032;-82
2021/12/06 02:32:51;;;;;;;;;;;;;;;;;;5134749;27;20373;-83
2021/12/06 02:35:20;;;;;;;;;;;;;;;;;;5134769;27;19943;-83
2021/12/06 02:37:47;;;;;;;;;;;;;;;;;;5134607;27;20010;-83
2021/12/06 02:40:14;;;;;;;;;;;;;;;;;;5134571;27;20010;-83
2021/12/06 02:42:45;;;;;;;;;;;;;;;;;;5133801;27;21523;-82
2021/12/06 02:45:12;;;;;;;;;;;;;;;;;;5134563;27;20421;-83
2021/12/06 02:47:39;;;;;;;;;;;;;;;;;;5134605;27;19941;-83
2021/12/06 02:50:08;;;;;;;;;;;;;;;;;;5134535;27;20040;-83
2021/12/06 02:52:35;;;;;;;;;;;;;;;;;;5134404;27;19952;-83
2021/12/06 02:55:09;;;;;;;;;;;;;;;;;;5134651;28;20007;-82
2021/12/06 02:57:38;;;;;;;;;;;;;;;;;;5134622;28;19944;-82
2021/12/06 03:00:05;;;;;;;;;;;;;;;;;;5133963;27;19949;-83
2021/12/06 03:02:32;;;;;;;;;;;;;;;;;;5134377;28;20057;-83
2021/12/06 03:04:59;;;;;;;;;;;;;;;;;;5134354;27;20016;-83
2021/12/06 03:07:28;;;;;;;;;;;;;;;;;;5134242;28;20044;-83
2021/12/06 03:09:55;;;;;;;;;;;;;;;;;;5134413;27;19946;-82
2021/12/06 03:12:23;;;;;;;;;;;;;;;;;;5134235;27;20484;-83
2021/12/06 03:14:50;;;;;;;;;;;;;;;;;;5134215;28;20049;-82
2021/12/06 03:17:17;;;;;;;;;;;;;;;;;;5134272;28;20021;-82
2021/12/06 03:19:44;;;;;;;;;;;;;;;;;;5134428;27;20040;-83
2021/12/06 03:22:11;;;;;;;;;;;;;;;;;;5134243;28;20022;-83
2021/12/06 03:24:38;;;;;;;;;;;;;;;;;;5134214;27;20037;-83
2021/12/06 03:27:05;;;;;;;;;;;;;;;;;;5134269;27;19994;-82
2021/12/06 03:29:32;;;;;;;;;;;;;;;;;;5134247;27;20032;-83
2021/12/06 03:31:59;;;;;;;;;;;;;;;;;;5134189;27;20014;-83
2021/12/06 03:34:26;;;;;;;;;;;;;;;;;;5134389;27;19995;-83
2021/12/06 03:36:53;;;;;;;;;;;;;;;;;;5134124;27;19984;-82
2021/12/06 03:39:23;;;;;;;;;;;;;;;;;;5134095;27;20002;-83
2021/12/06 03:41:50;;;;;;;;;;;;;;;;;;5134186;27;19949;-83
2021/12/06 03:44:18;;;;;;;;;;;;;;;;;;5137461;27;19985;-82
2021/12/06 03:46:45;;;;;;;;;;;;;;;;;;5137706;27;19958;-82
2021/12/06 03:49:12;;;;;;;;;;;;;;;;;;5137953;27;19978;-82
2021/12/06 03:51:39;;;;;;;;;;;;;;;;;;5137642;27;20384;-82
2021/12/06 03:54:06;;;;;;;;;;;;;;;;;;5137748;27;20010;-83
2021/12/06 03:56:33;;;;;;;;;;;;;;;;;;5137636;27;20050;-82
2021/12/06 03:59:00;;;;;;;;;;;;;;;;;;5138099;27;20038;-82
2021/12/06 04:01:27;;;;;;;;;;;;;;;;;;5142396;27;20301;-83
2021/12/06 04:03:54;;;;;;;;;;;;;;;;;;5137718;27;20323;-82
2021/12/06 04:06:21;;;;;;;;;;;;;;;;;;5137508;27;20061;-83
2021/12/06 04:08:49;;;;;;;;;;;;;;;;;;5137546;27;20038;-82
2021/12/06 04:11:16;;;;;;;;;;;;;;;;;;5137437;27;20341;-82
2021/12/06 04:13:43;;;;;;;;;;;;;;;;;;5137217;27;19990;-83
2021/12/06 04:16:10;;;;;;;;;;;;;;;;;;5137538;27;20015;-82
2021/12/06 04:18:37;;;;;;;;;;;;;;;;;;5137122;27;20480;-82
2021/12/06 04:21:04;;;;;;;;;;;;;;;;;;5137351;27;20041;-82
2021/12/06 04:23:31;;;;;;;;;;;;;;;;;;5137182;27;20319;-82
2021/12/06 04:25:58;;;;;;;;;;;;;;;;;;5137009;27;20054;-82
2021/12/06 04:28:28;;;;;;;;;;;;;;;;;;5137009;27;20026;-82
2021/12/06 04:30:55;;;;;;;;;;;;;;;;;;5136918;27;20298;-82
2021/12/06 04:33:22;;;;;;;;;;;;;;;;;;5137069;27;19991;-82
2021/12/06 04:35:49;;;;;;;;;;;;;;;;;;5136984;27;20034;-83
2021/12/06 04:38:16;;;;;;;;;;;;;;;;;;5136805;27;19974;-82
2021/12/06 04:40:43;;;;;;;;;;;;;;;;;;5136755;27;20041;-83
2021/12/06 04:43:10;;;;;;;;;;;;;;;;;;5136870;27;20028;-82
2021/12/06 04:45:37;;;;;;;;;;;;;;;;;;5136743;27;20048;-82
2021/12/06 04:48:04;;;;;;;;;;;;;;;;;;5136669;27;19977;-83
2021/12/06 04:50:32;;;;;;;;;;;;;;;;;;5136592;27;20034;-83
2021/12/06 04:52:59;;;;;;;;;;;;;;;;;;5136454;27;19930;-83
2021/12/06 04:55:26;;;;;;;;;;;;;;;;;;5136291;27;20460;-83
2021/12/06 04:57:53;;;;;;;;;;;;;;;;;;5136593;27;20049;-83
2021/12/06 05:00:20;;;;;;;;;;;;;;;;;;5136569;27;20030;-82
2021/12/06 05:02:47;;;;;;;;;;;;;;;;;;5136268;27;20029;-82
2021/12/06 05:05:14;;;;;;;;;;;;;;;;;;5136303;27;20018;-83
2021/12/06 05:07:41;;;;;;;;;;;;;;;;;;5136231;27;19988;-82
2021/12/06 05:10:08;;;;;;;;;;;;;;;;;;5136209;27;20036;-83
2021/12/06 05:12:35;;;;;;;;;;;;;;;;;;5136266;27;19988;-83
2021/12/06 05:15:02;;;;;;;;;;;;;;;;;;5136214;27;20004;-83
2021/12/06 05:17:29;;;;;;;;;;;;;;;;;;5135968;27;19991;-83
2021/12/06 05:19:56;;;;;;;;;;;;;;;;;;5136189;27;19941;-83
2021/12/06 05:22:24;;;;;;;;;;;;;;;;;;5135941;27;20372;-82
2021/12/06 05:24:51;;;;;;;;;;;;;;;;;;5136160;27;19942;-83
2021/12/06 05:27:23;;;;;;;;;;;;;;;;;;5135891;27;19993;-83
2021/12/06 05:29:55;;;;;;;;;;;;;;;;;;5135960;27;19942;-82
2021/12/06 05:32:25;;;;;;;;;;;;;;;;;;5136879;27;19948;-82
2021/12/06 05:34:57;;;;;;;;;;;;;;;;;;5136421;27;19944;-82
2021/12/06 05:37:24;;;;;;;;;;;;;;;;;;5135580;27;19989;-82
2021/12/06 05:39:51;;;;;;;;;;;;;;;;;;5135550;27;20048;-82
2021/12/06 05:42:18;;;;;;;;;;;;;;;;;;5135663;27;20021;-82
2021/12/06 05:44:45;;;;;;;;;;;;;;;;;;5135580;27;20018;-83
2021/12/06 05:47:12;;;;;;;;;;;;;;;;;;5135437;27;20058;-83
2021/12/06 05:49:39;;;;;;;;;;;;;;;;;;5135321;27;20357;-83
2021/12/06 05:52:07;;;;;;;;;;;;;;;;;;5135594;27;20042;-82
2021/12/06 05:54:34;;;;;;;;;;;;;;;;;;5135496;27;19978;-82
2021/12/06 05:57:01;;;;;;;;;;;;;;;;;;5135521;27;20002;-83
2021/12/06 05:59:28;;;;;;;;;;;;;;;;;;5135085;27;19993;-83
2021/12/06 06:01:55;;;;;;;;;;;;;;;;;;5135299;27;20018;-82
2021/12/06 06:04:22;;;;;;;;;;;;;;;;;;5135140;27;20477;-83
2021/12/06 06:06:49;;;;;;;;;;;;;;;;;;5134615;27;20068;-83
2021/12/06 06:09:16;;;;;;;;;;;;;;;;;;5135147;27;19946;-83
2021/12/06 06:11:43;;;;;;;;;;;;;;;;;;5135171;27;19947;-82
2021/12/06 06:14:10;;;;;;;;;;;;;;;;;;5134805;27;19992;-82
2021/12/06 06:16:47;;;;;;;;;;;;;;;;;;5134950;27;20025;-82
2021/12/06 06:19:14;;;;;;;;;;;;;;;;;;5134844;27;19943;-83
2021/12/06 06:21:41;;;;;;;;;;;;;;;;;;5134894;27;20036;-82
2021/12/06 06:24:08;;;;;;;;;;;;;;;;;;5134851;27;20034;-82
2021/12/06 06:26:35;;;;;;;;;;;;;;;;;;5134826;27;19998;-83
2021/12/06 06:29:02;;;;;;;;;;;;;;;;;;5134684;27;20022;-82
2021/12/06 06:31:29;;;;;;;;;;;;;;;;;;5134998;27;20046;-83
2021/12/06 06:33:56;;;;;;;;;;;;;;;;;;5134889;27;20040;-83
2021/12/06 06:36:23;;;;;;;;;;;;;;;;;;5134881;27;20042;-82
2021/12/06 06:38:50;;;;;;;;;;;;;;;;;;5134395;27;20064;-82
2021/12/06 06:41:17;;;;;;;;;;;;;;;;;;5134712;27;20019;-82
2021/12/06 06:43:44;;;;;;;;;;;;;;;;;;5134433;27;20815;-83
2021/12/06 06:46:11;;;;;;;;;;;;;;;;;;5134705;27;20005;-81
2021/12/06 06:48:38;;;;;;;;;;;;;;;;;;5134636;28;19966;-82
2021/12/06 06:51:05;;;;;;;;;;;;;;;;;;5134330;28;19986;-81
2021/12/06 06:53:32;;;;;;;;;;;;;;;;;;5134515;27;19978;-82
2021/12/06 06:55:59;;;;;;;;;;;;;;;;;;5134344;27;20040;-82
2021/12/06 06:58:26;;;;;;;;;;;;;;;;;;5134689;28;19998;-82
2021/12/06 07:00:53;;;;;;;;;;;;;;;;;;5134367;27;20396;-82
2021/12/06 07:03:21;;;;;;;;;;;;;;;;;;5134480;28;20034;-82
2021/12/06 07:05:48;;;;;;;;;;;;;;;;;;5134385;27;20040;-82
2021/12/06 07:08:15;;;;;;;;;;;;;;;;;;5134124;28;20030;-83
2021/12/06 07:10:42;;;;;;;;;;;;;;;;;;5135847;27;19969;-82
2021/12/06 07:13:11;;;;;;;;;;;;;;;;;;5137399;27;19993;-82
2021/12/06 07:15:38;;;;;;;;;;;;;;;;;;5134149;27;20446;-82
2021/12/06 07:18:05;;;;;;;;;;;;;;;;;;5137694;27;20041;-82
2021/12/06 07:20:33;;;;;;;;;;;;;;;;;;5138219;27;20044;-82
2021/12/06 07:23:00;;;;;;;;;;;;;;;;;;5138087;27;19935;-81
2021/12/06 07:25:27;;;;;;;;;;;;;;;;;;5138225;27;20363;-82
2021/12/06 07:27:54;;;;;;;;;;;;;;;;;;5137942;27;19973;-82
2021/12/06 07:30:21;;;;;;;;;;;;;;;;;;5137943;27;20026;-81
2021/12/06 07:32:48;;;;;;;;;;;;;;;;;;5137726;27;20023;-82
2021/12/06 07:35:15;;;;;;;;;;;;;;;;;;5137618;27;20350;-82
2021/12/06 07:37:42;;;;;;;;;;;;;;;;;;5137331;27;19990;-82
2021/12/06 07:40:09;;;;;;;;;;;;;;;;;;5137790;27;19985;-81
2021/12/06 07:42:36;;;;;;;;;;;;;;;;;;5137097;27;20472;-82
2021/12/06 07:45:03;;;;;;;;;;;;;;;;;;5142577;27;19995;-83
2021/12/06 07:47:30;;;;;;;;;;;;;;;;;;5138690;27;20045;-84
2021/12/06 07:49:57;;;;;;;;;;;;;;;;;;5135105;27;19976;-83
2021/12/06 07:52:24;;;;;;;;;;;;;;;;;;5137331;27;20026;-85
2021/12/06 07:54:53;;;;;;;;;;;;;;;;;;5137228;27;20018;-82
2021/12/06 07:57:20;;;;;;;;;;;;;;;;;;5136200;27;19958;-82
2021/12/06 07:59:47;;;;;;;;;;;;;;;;;;5137322;27;20348;-82
2021/12/06 08:02:14;;;;;;;;;;;;;;;;;;5137072;27;19944;-82
2021/12/06 08:04:41;;;;;;;;;;;;;;;;;;5137000;27;20037;-82
2021/12/06 08:07:09;;;;;;;;;;;;;;;;;;5137000;27;20010;-83
2021/12/06 08:09:36;;;;;;;;;;;;;;;;;;5136606;27;19994;-84
2021/12/06 08:12:03;;;;;;;;;;;;;;;;;;5137417;27;19941;-84
2021/12/06 08:14:30;;;;;;;;;;;;;;;;;;5137331;27;20028;-84
2021/12/06 08:16:58;;;;;;;;;;;;;;;;;;5137194;27;20401;-85
2021/12/06 08:19:25;;;;;;;;;;;;;;;;;;5136883;27;20359;-85
2021/12/06 08:21:52;;;;;;;;;;;;;;;;;;5136251;27;20025;-85
2021/12/06 08:24:19;;;;;;;;;;;;;;;;;;5137120;27;20034;-85
2021/12/06 08:26:47;;;;;;;;;;;;;;;;;;5137707;27;19956;-84
2021/12/06 08:29:16;;;;;;;;;;;;;;;;;;5135283;27;19940;-85
2021/12/06 08:31:44;;;;;;;;;;;;;;;;;;5136694;27;20342;-85
2021/12/06 08:34:11;;;;;;;;;;;;;;;;;;5136610;27;19978;-85
2021/12/06 08:36:40;;;;;;;;;;;;;;;;;;5136701;27;20309;-84
2021/12/06 08:39:07;;;;;;;;;;;;;;;;;;5136422;27;20008;-85
2021/12/06 08:41:34;;;;;;;;;;;;;;;;;;5136375;27;20034;-84
2021/12/06 08:44:02;;;;;;;;;;;;;;;;;;5136164;27;20449;-84
2021/12/06 08:46:29;;;;;;;;;;;;;;;;;;5135846;27;19938;-84
2021/12/06 08:48:56;;;;;;;;;;;;;;;;;;5136608;27;19977;-85
2021/12/06 08:51:23;;;;;;;;;;;;;;;;;;5136379;27;20034;-85
2021/12/06 08:53:50;;;;;;;;;;;;;;;;;;5136224;27;19939;-85
2021/12/06 08:56:17;;;;;;;;;;;;;;;;;;5136153;27;19936;-85
2021/12/06 08:58:44;;;;;;;;;;;;;;;;;;5135885;27;20040;-85
2021/12/06 09:01:11;;;;;;;;;;;;;;;;;;5135907;27;20044;-85
2021/12/06 09:03:38;;;;;;;;;;;;;;;;;;5136097;27;20041;-85
2021/12/06 09:06:06;;;;;;;;;;;;;;;;;;5135803;27;19994;-85
2021/12/06 09:08:33;;;;;;;;;;;;;;;;;;5135783;27;20436;-85
2021/12/06 09:11:00;;;;;;;;;;;;;;;;;;5135640;27;19996;-85
2021/12/06 09:13:28;;;;;;;;;;;;;;;;;;5135724;27;20097;-85
2021/12/06 09:15:55;;;;;;;;;;;;;;;;;;5135906;27;19938;-85
2021/12/06 09:18:22;;;;;;;;;;;;;;;;;;5136148;27;19942;-86
2021/12/06 09:20:49;;;;;;;;;;;;;;;;;;5135745;27;20044;-86
2021/12/06 09:23:16;;;;;;;;;;;;;;;;;;5136048;27;20458;-87
2021/12/06 09:25:43;;;;;;;;;;;;;;;;;;5135998;27;20035;-86
2021/12/06 09:28:10;;;;;;;;;;;;;;;;;;5135272;27;20012;-85
2021/12/06 09:30:37;;;;;;;;;;;;;;;;;;5135119;27;20002;-86
2021/12/06 09:33:04;;;;;;;;;;;;;;;;;;5135216;27;20355;-86
2021/12/06 09:35:32;;;;;;;;;;;;;;;;;;5135201;27;19981;-86
2021/12/06 09:37:59;;;;;;;;;;;;;;;;;;5135037;27;19937;-85
2021/12/06 09:40:26;;;;;;;;;;;;;;;;;;5133748;27;20027;-85
2021/12/06 09:42:53;;;;;;;;;;;;;;;;;;5135276;27;19962;-85
2021/12/06 09:45:20;;;;;;;;;;;;;;;;;;5135569;27;20040;-86
2021/12/06 09:47:51;;;;;;;;;;;;;;;;;;5135314;27;20060;-86
2021/12/06 09:50:18;;;;;;;;;;;;;;;;;;5135342;27;19945;-86
2021/12/06 09:52:45;;;;;;;;;;;;;;;;;;5134621;27;20040;-86
2021/12/06 09:55:12;;;;;;;;;;;;;;;;;;5134709;27;20018;-85
2021/12/06 09:57:39;;;;;;;;;;;;;;;;;;5134868;27;20032;-86
2021/12/06 10:00:06;;;;;;;;;;;;;;;;;;5134616;27;19975;-85
2021/12/06 10:02:33;;;;;;;;;;;;;;;;;;5134660;27;20026;-85
2021/12/06 10:05:00;;;;;;;;;;;;;;;;;;5134639;27;19988;-85
2021/12/06 10:07:27;;;;;;;;;;;;;;;;;;5134785;27;20122;-85
2021/12/06 10:09:54;;;;;;;;;;;;;;;;;;5134378;27;19984;-86
2021/12/06 10:12:21;;;;;;;;;;;;;;;;;;5134509;27;20034;-85
2021/12/06 10:14:48;;;;;;;;;;;;;;;;;;5134546;27;20038;-85
2021/12/06 10:17:16;;;;;;;;;;;;;;;;;;5134272;27;20044;-85
2021/12/06 10:19:43;;;;;;;;;;;;;;;;;;5134877;27;19939;-85
2021/12/06 10:22:10;;;;;;;;;;;;;;;;;;5134442;27;19977;-84
2021/12/06 10:24:37;;;;;;;;;;;;;;;;;;5134313;27;19995;-85
2021/12/06 10:27:04;;;;;;;;;;;;;;;;;;5134503;27;20385;-85
2021/12/06 10:29:33;;;;;;;;;;;;;;;;;;5134595;27;20009;-85
2021/12/06 10:32:00;;;;;;;;;;;;;;;;;;5134064;27;20414;-85
2021/12/06 10:34:27;;;;;;;;;;;;;;;;;;5134235;27;19976;-86
2021/12/06 10:36:54;;;;;;;;;;;;;;;;;;5134158;27;19935;-83
2021/12/06 10:39:22;;;;;;;;;;;;;;;;;;5133951;27;20014;-82
2021/12/06 10:41:49;;;;;;;;;;;;;;;;;;5134537;27;19930;-82
2021/12/06 10:44:16;;;;;;;;;;;;;;;;;;5134500;27;20052;-82
2021/12/06 10:46:43;;;;;;;;;;;;;;;;;;5134380;27;20075;-82
2021/12/06 10:49:10;;;;;;;;;;;;;;;;;;5134410;28;20375;-81
2021/12/06 10:51:37;;;;;;;;;;;;;;;;;;5133979;27;19993;-83
2021/12/06 10:54:06;;;;;;;;;;;;;;;;;;5133843;28;20369;-83
2021/12/06 10:56:39;;;;;;;;;;;;;;;;;;5133933;27;20028;-84
2021/12/06 10:59:07;;;;;;;;;;;;;;;;;;5131497;27;19939;-82
2021/12/06 11:01:34;;;;;;;;;;;;;;;;;;5134140;28;20081;-83
2021/12/06 11:04:01;;;;;;;;;;;;;;;;;;5133941;28;20088;-82
2021/12/06 11:06:30;;;;;;;;;;;;;;;;;;5134370;28;20054;-83
2021/12/06 11:08:57;;;;;;;;;;;;;;;;;;5134482;27;19923;-80
2021/12/06 11:11:27;;;;;;;;;;;;;;;;;;5134239;28;19970;-80
2021/12/06 11:13:54;;;;;;;;;;;;;;;;;;5134084;28;19927;-80
2021/12/06 11:16:21;;;;;;;;;;;;;;;;;;5134143;28;20021;-83
2021/12/06 11:18:48;;;;;;;;;;;;;;;;;;5134136;28;19969;-83
2021/12/06 11:21:15;;;;;;;;;;;;;;;;;;5134060;28;20390;-83
2021/12/06 11:23:42;;;;;;;;;;;;;;;;;;5133842;28;20033;-81
2021/12/06 11:26:09;;;;;;;;;;;;;;;;;;5134097;27;20385;-81
2021/12/06 11:28:38;;;;;;;;;;;;;;;;;;5134006;27;20046;-82
2021/12/06 11:31:05;;;;;;;;;;;;;;;;;;5134005;27;19942;-82
2021/12/06 11:33:32;;;;;;;;;;;;;;;;;;5133738;27;20026;-80
2021/12/06 11:35:59;;;;;;;;;;;;;;;;;;5133763;28;19945;-81
2021/12/06 11:38:26;;;;;;;;;;;;;;;;;;5133969;28;20432;-81
2021/12/06 11:40:53;;;;;;;;;;;;;;;;;;5133928;27;20007;-81
2021/12/06 11:43:20;;;;;;;;;;;;;;;;;;5133612;27;19943;-83
2021/12/06 11:45:48;;;;;;;;;;;;;;;;;;5133908;27;19996;-81
2021/12/06 11:48:15;;;;;;;;;;;;;;;;;;5133835;27;19930;-82
2021/12/06 11:50:42;;;;;;;;;;;;;;;;;;5133811;27;19948;-83
2021/12/06 11:53:09;;;;;;;;;;;;;;;;;;5133809;28;20002;-83
2021/12/06 11:55:36;;;;;;;;;;;;;;;;;;5133871;27;20040;-82
2021/12/06 11:58:03;;;;;;;;;;;;;;;;;;5133772;28;20362;-82
2021/12/06 12:00:31;;;;;;;;;;;;;;;;;;5133588;28;19923;-82
2021/12/06 12:02:58;;;;;;;;;;;;;;;;;;5133605;27;19989;-83
2021/12/06 12:05:25;;;;;;;;;;;;;;;;;;5136950;27;20014;-83
2021/12/06 12:07:52;;;;;;;;;;;;;;;;;;5137025;27;20036;-83
2021/12/06 12:10:19;;;;;;;;;;;;;;;;;;5136828;27;19981;-83
2021/12/06 12:12:46;;;;;;;;;;;;;;;;;;5136729;27;20466;-84
2021/12/06 12:15:13;;;;;;;;;;;;;;;;;;5136853;27;20022;-83
2021/12/06 12:17:41;;;;;;;;;;;;;;;;;;5136793;27;20026;-83
2021/12/06 12:20:08;;;;;;;;;;;;;;;;;;5137288;27;20067;-83
2021/12/06 12:22:35;;;;;;;;;;;;;;;;;;5137212;27;20016;-83
2021/12/06 12:25:08;;;;;;;;;;;;;;;;;;5136727;27;19946;-83
2021/12/06 12:27:42;;;;;;;;;;;;;;;;;;5137049;27;19958;-83
2021/12/06 12:30:09;;;;;;;;;;;;;;;;;;5137139;27;20033;-83
2021/12/06 12:32:36;;;;;;;;;;;;;;;;;;5136872;27;20048;-83
2021/12/06 12:35:03;;;;;;;;;;;;;;;;;;5136686;27;20040;-83
2021/12/06 12:37:30;;;;;;;;;;;;;;;;;;5136720;27;20363;-82
2021/12/06 12:39:57;;;;;;;;;;;;;;;;;;5136556;27;20014;-81
2021/12/06 12:42:24;;;;;;;;;;;;;;;;;;5136868;27;20033;-82
2021/12/06 12:44:51;;;;;;;;;;;;;;;;;;5136591;27;20022;-82
2021/12/06 12:47:18;;;;;;;;;;;;;;;;;;5136463;27;19970;-82
2021/12/06 12:49:45;;;;;;;;;;;;;;;;;;5136628;27;20554;-83
2021/12/06 12:52:12;;;;;;;;;;;;;;;;;;5136055;27;19934;-83
2021/12/06 12:54:39;;;;;;;;;;;;;;;;;;5135849;27;20083;-83
2021/12/06 12:57:12;;;;;;;;;;;;;;;;;;5136317;27;20034;-83
2021/12/06 12:59:39;;;;;;;;;;;;;;;;;;5136464;27;19942;-83
2021/12/06 13:02:06;;;;;;;;;;;;;;;;;;5136513;27;20032;-82
2021/12/06 13:04:33;;;;;;;;;;;;;;;;;;5135915;27;19963;-82
2021/12/06 13:07:00;;;;;;;;;;;;;;;;;;5135904;27;20511;-82
2021/12/06 13:09:27;;;;;;;;;;;;;;;;;;5136309;27;19999;-82
2021/12/06 13:11:54;;;;;;;;;;;;;;;;;;5135980;27;19965;-83
2021/12/06 13:14:21;;;;;;;;;;;;;;;;;;5135689;27;19978;-82
2021/12/06 13:16:57;;;;;;;;;;;;;;;;;;5136023;27;19992;-83
2021/12/06 13:19:32;;;;;;;;;;;;;;;;;;5136025;27;19941;-83
2021/12/06 13:22:02;;;;;;;;;;;;;;;;;;5136142;27;20032;-83
2021/12/06 13:24:29;;;;;;;;;;;;;;;;;;5136337;27;20308;-83
2021/12/06 13:26:56;;;;;;;;;;;;;;;;;;5135667;27;19923;-84
2021/12/06 13:29:27;;;;;;;;;;;;;;;;;;5135769;27;20052;-83
2021/12/06 13:31:54;;;;;;;;;;;;;;;;;;5135775;27;19987;-83
2021/12/06 13:34:21;;;;;;;;;;;;;;;;;;5135792;27;20477;-83
2021/12/06 13:36:48;;;;;;;;;;;;;;;;;;5135604;27;19966;-83
2021/12/06 13:39:15;;;;;;;;;;;;;;;;;;5135591;27;19961;-83
2021/12/06 13:41:42;;;;;;;;;;;;;;;;;;5135233;27;20034;-82
2021/12/06 13:44:09;;;;;;;;;;;;;;;;;;5135115;27;20021;-83
2021/12/06 13:46:36;;;;;;;;;;;;;;;;;;5134416;27;19994;-82
2021/12/06 13:49:03;;;;;;;;;;;;;;;;;;5134959;27;19976;-83
2021/12/06 13:51:30;;;;;;;;;;;;;;;;;;5135305;27;19966;-81
2021/12/06 13:53:57;;;;;;;;;;;;;;;;;;5134968;27;20010;-82
2021/12/06 13:56:24;;;;;;;;;;;;;;;;;;5134956;27;20034;-83
2021/12/06 13:58:53;;;;;;;;;;;;;;;;;;5134855;27;20028;-82
2021/12/06 14:01:21;;;;;;;;;;;;;;;;;;5135166;27;19923;-84
2021/12/06 14:03:48;;;;;;;;;;;;;;;;;;5134873;27;19938;-82
2021/12/06 14:06:15;;;;;;;;;;;;;;;;;;5134674;27;20004;-82
2021/12/06 14:08:42;;;;;;;;;;;;;;;;;;5134239;27;19972;-83
2021/12/06 14:11:09;;;;;;;;;;;;;;;;;;5134314;27;20392;-82
2021/12/06 14:13:36;;;;;;;;;;;;;;;;;;5134627;27;19986;-83
2021/12/06 14:16:07;;;;;;;;;;;;;;;;;;5134339;27;19974;-82
2021/12/06 14:18:34;;;;;;;;;;;;;;;;;;5134984;27;19967;-82
2021/12/06 14:21:01;;;;;;;;;;;;;;;;;;5134660;27;20043;-82
2021/12/06 14:23:28;;;;;;;;;;;;;;;;;;5134293;27;20033;-82
2021/12/06 14:26:02;;;;;;;;;;;;;;;;;;5133422;27;20022;-81
2021/12/06 14:28:29;;;;;;;;;;;;;;;;;;5132184;27;19994;-82
2021/12/06 14:30:56;;;;;;;;;;;;;;;;;;5134260;27;19992;-81
2021/12/06 14:33:23;;;;;;;;;;;;;;;;;;5134287;27;20024;-82
2021/12/06 14:35:50;;;;;;;;;;;;;;;;;;5133575;27;20018;-82
2021/12/06 14:38:17;;;;;;;;;;;;;;;;;;5133978;27;20009;-82
2021/12/06 14:40:44;;;;;;;;;;;;;;;;;;5133490;27;20036;-82
2021/12/06 14:43:11;;;;;;;;;;;;;;;;;;5134534;27;19978;-83
2021/12/06 14:45:38;;;;;;;;;;;;;;;;;;5134139;27;19942;-82
2021/12/06 14:48:08;;;;;;;;;;;;;;;;;;5134429;27;20050;-83
2021/12/06 14:50:37;;;;;;;;;;;;;;;;;;5133904;27;19923;-83
2021/12/06 14:53:04;;;;;;;;;;;;;;;;;;5133910;28;19969;-83
2021/12/06 14:55:47;;;;;;;;;;;;;;;;;;5133931;28;19930;-82
2021/12/06 14:58:14;;;;;;;;;;;;;;;;;;5132450;27;19946;-83
2021/12/06 15:00:41;;;;;;;;;;;;;;;;;;5134092;28;19977;-82
2021/12/06 15:03:08;;;;;;;;;;;;;;;;;;5133485;27;19943;-82
2021/12/06 15:05:35;;;;;;;;;;;;;;;;;;5134214;27;20362;-82
2021/12/06 15:08:02;;;;;;;;;;;;;;;;;;5134369;27;20011;-82
2021/12/06 15:10:29;;;;;;;;;;;;;;;;;;5134139;27;20014;-82
2021/12/06 15:12:56;;;;;;;;;;;;;;;;;;5134140;27;20449;-82
2021/12/06 15:15:23;;;;;;;;;;;;;;;;;;5133798;27;19988;-82
2021/12/06 15:17:50;;;;;;;;;;;;;;;;;;5133928;28;19982;-82
2021/12/06 15:20:17;;;;;;;;;;;;;;;;;;5133409;27;20458;-83
2021/12/06 15:22:44;;;;;;;;;;;;;;;;;;5134362;27;20033;-82
2021/12/06 15:25:12;;;;;;;;;;;;;;;;;;5133168;27;19981;-83
2021/12/06 15:27:39;;;;;;;;;;;;;;;;;;5133638;27;19943;-82
2021/12/06 15:30:06;;;;;;;;;;;;;;;;;;5133847;27;19974;-83
2021/12/06 15:32:33;;;;;;;;;;;;;;;;;;5133767;27;20470;-82
2021/12/06 15:35:00;;;;;;;;;;;;;;;;;;5133842;27;19958;-83
2021/12/06 15:37:27;;;;;;;;;;;;;;;;;;5133250;27;19981;-83
2021/12/06 15:39:54;;;;;;;;;;;;;;;;;;5136482;27;20069;-82
2021/12/06 15:42:23;;;;;;;;;;;;;;;;;;5138059;27;20028;-83
2021/12/06 15:44:50;;;;;;;;;;;;;;;;;;5138179;27;19968;-83
2021/12/06 15:47:17;;;;;;;;;;;;;;;;;;5137121;27;20030;-83
2021/12/06 15:49:44;;;;;;;;;;;;;;;;;;5137840;27;20057;-83
2021/12/06 15:52:11;;;;;;;;;;;;;;;;;;5137431;27;20391;-83
2021/12/06 15:54:38;;;;;;;;;;;;;;;;;;5137827;27;19969;-82
2021/12/06 15:57:05;;;;;;;;;;;;;;;;;;5137404;27;20014;-83
2021/12/06 15:59:33;;;;;;;;;;;;;;;;;;5137586;27;19930;-83
2021/12/06 16:02:00;;;;;;;;;;;;;;;;;;5136945;27;19938;-83
2021/12/06 16:04:27;;;;;;;;;;;;;;;;;;5137770;27;20027;-83
2021/12/06 16:06:54;;;;;;;;;;;;;;;;;;5137598;27;20010;-83
2021/12/06 16:09:21;;;;;;;;;;;;;;;;;;5137018;27;20048;-83
2021/12/06 16:11:48;;;;;;;;;;;;;;;;;;5137386;27;19931;-84
2021/12/06 16:14:15;;;;;;;;;;;;;;;;;;5137289;27;19942;-84
2021/12/06 16:16:42;;;;;;;;;;;;;;;;;;5137310;27;19966;-84
2021/12/06 16:19:09;;;;;;;;;;;;;;;;;;5136894;27;19978;-84
2021/12/06 16:21:38;;;;;;;;;;;;;;;;;;5137252;27;19966;-84
2021/12/06 16:24:05;;;;;;;;;;;;;;;;;;5137010;27;20305;-83
2021/12/06 16:26:34;;;;;;;;;;;;;;;;;;5137058;27;20031;-83
2021/12/06 16:29:01;;;;;;;;;;;;;;;;;;5136378;27;19923;-82
2021/12/06 16:31:28;;;;;;;;;;;;;;;;;;5137050;27;20008;-82
2021/12/06 16:33:56;;;;;;;;;;;;;;;;;;5137134;27;19994;-83
2021/12/06 16:36:23;;;;;;;;;;;;;;;;;;5136182;27;19969;-82
2021/12/06 16:38:50;;;;;;;;;;;;;;;;;;5135555;27;20055;-82
2021/12/06 16:41:17;;;;;;;;;;;;;;;;;;5134952;27;20025;-83
2021/12/06 16:43:44;;;;;;;;;;;;;;;;;;5134774;27;20042;-82
2021/12/06 16:46:11;;;;;;;;;;;;;;;;;;5134538;27;20014;-83
2021/12/06 16:48:38;;;;;;;;;;;;;;;;;;5134740;27;20476;-85
2021/12/06 16:51:05;;;;;;;;;;;;;;;;;;5135669;27;20011;-82
2021/12/06 16:53:32;;;;;;;;;;;;;;;;;;5136209;27;20351;-83
2021/12/06 16:56:00;;;;;;;;;;;;;;;;;;5136185;27;20386;-83